Time;durP1;ratioP1;P1;durP2;ratioP2;P2;SDS_P1;SDS_P2;PMS_P1;PMS_P2;Temp;Humidity;BMP_temperature;BMP_pressure;BME280_temperature;BME280_humidity;BME280_pressure;Samples;Min_cycle;Max_cycle;Signal;HPM_P1;HPM_P2
2022/10/01 00:02:09;;;;;;;0.50;0.50;;;;;;;9.98;93.90;99404.53;5066548;28;20073;-69
2022/10/01 00:04:36;;;;;;;0.43;0.43;;;;;;;9.95;93.71;99405.47;5066328;28;20025;-69
2022/10/01 00:07:03;;;;;;;0.40;0.40;;;;;;;9.95;93.57;99414.97;5067247;28;20051;-69
2022/10/01 00:09:30;;;;;;;0.50;0.50;;;;;;;9.90;94.00;99410.72;5067474;28;20047;-70
2022/10/01 00:11:55;;;;;;;0.40;0.40;;;;;;;9.90;94.26;99408.13;5067393;28;20064;-70
2022/10/01 00:14:21;;;;;;;0.40;0.40;;;;;;;9.90;94.21;99402.09;5067446;28;20025;-71
2022/10/01 00:16:46;;;;;;;0.40;0.40;;;;;;;9.92;94.29;99393.41;5067182;28;20043;-70
2022/10/01 00:19:13;;;;;;;0.50;0.50;;;;;;;9.94;94.72;99387.31;5067164;28;20052;-71
2022/10/01 00:21:39;;;;;;;0.65;0.65;;;;;;;9.96;94.79;99388.13;5066064;28;20032;-71
2022/10/01 00:24:05;;;;;;;0.40;0.40;;;;;;;9.95;94.75;99383.84;5067029;28;20033;-72
2022/10/01 00:26:33;;;;;;;0.40;0.40;;;;;;;9.98;95.07;99387.25;5067127;28;20131;-73
2022/10/01 00:29:12;;;;;;;0.93;0.93;;;;;;;10.03;95.18;99387.97;5067151;28;20036;-74
2022/10/01 00:31:37;;;;;;;0.40;0.40;;;;;;;9.97;95.02;99382.09;5065276;28;20025;-74
2022/10/01 00:34:03;;;;;;;1.02;1.02;;;;;;;9.93;95.25;99383.88;5067196;28;20036;-74
2022/10/01 00:36:30;;;;;;;0.50;0.50;;;;;;;10.00;95.46;99387.19;5067109;28;20055;-72
2022/10/01 00:38:59;;;;;;;0.40;0.40;;;;;;;9.98;95.57;99373.41;5066369;28;20086;-69
2022/10/01 00:41:26;;;;;;;0.40;0.40;;;;;;;9.97;95.78;99382.91;5067094;28;20054;-70
2022/10/01 00:43:56;;;;;;;0.57;0.57;;;;;;;9.91;95.81;99370.97;5065248;28;20040;-69
2022/10/01 00:46:33;;;;;;;0.40;0.40;;;;;;;10.00;95.44;99371.66;5065984;28;20048;-67
2022/10/01 00:49:05;;;;;;;0.40;0.40;;;;;;;9.99;95.37;99367.31;5066615;28;20092;-67
2022/10/01 00:51:38;;;;;;;0.40;0.40;;;;;;;10.03;95.22;99379.34;5066903;28;20028;-66
2022/10/01 00:54:21;;;;;;;0.70;0.70;;;;;;;9.93;95.58;99365.75;5066589;28;20025;-66
2022/10/01 00:56:51;;;;;;;0.50;0.50;;;;;;;9.98;95.29;99361.31;5066861;28;20025;-66
2022/10/01 00:59:17;;;;;;;0.40;0.40;;;;;;;10.04;95.13;99360.31;5066486;28;20477;-65
2022/10/01 01:01:43;;;;;;;0.55;0.55;;;;;;;10.06;95.49;99350.75;5066664;28;20036;-65
2022/10/01 01:04:15;;;;;;;0.50;0.50;;;;;;;10.04;95.15;99355.97;5066269;28;20021;-65
2022/10/01 01:06:46;;;;;;;0.40;0.40;;;;;;;10.03;95.18;99351.66;5066232;28;20107;-65
2022/10/01 01:09:11;;;;;;;0.73;0.73;;;;;;;10.06;95.04;99345.56;5066342;28;20032;-66
2022/10/01 01:11:54;;;;;;;0.40;0.40;;;;;;;10.07;94.79;99351.59;5066601;28;20025;-65
2022/10/01 01:14:45;;;;;;;1.58;1.50;;;;;;;10.13;94.66;99357.50;5066393;28;20048;-65
2022/10/01 01:17:24;;;;;;;0.77;0.77;;;;;;;10.07;94.27;99343.81;5066204;28;20025;-66
2022/10/01 01:20:11;;;;;;;0.85;0.85;;;;;;;9.95;94.60;99347.56;5065590;28;20040;-66
2022/10/01 01:22:46;;;;;;;0.68;0.68;;;;;;;9.93;94.44;99342.41;5065266;28;20059;-65
2022/10/01 01:25:19;;;;;;;0.43;0.43;;;;;;;9.93;94.26;99332.03;5066020;28;20079;-65
2022/10/01 01:27:55;;;;;;;0.50;0.50;;;;;;;9.79;94.94;99338.38;5064661;28;20031;-66
2022/10/01 01:30:20;;;;;;;0.45;0.45;;;;;;;9.75;95.00;99334.16;5066015;28;20461;-65
2022/10/01 01:32:45;;;;;;;0.50;0.50;;;;;;;9.84;94.14;99335.69;5065436;28;20059;-66
2022/10/01 01:35:19;;;;;;;0.40;0.40;;;;;;;9.80;94.09;99336.63;5066004;28;20021;-65
2022/10/01 01:37:52;;;;;;;0.40;0.40;;;;;;;9.76;94.46;99330.66;5065470;28;20024;-66
2022/10/01 01:40:19;;;;;;;0.40;0.40;;;;;;;9.71;95.03;99323.91;5065601;28;20077;-66
2022/10/01 01:42:46;;;;;;;1.58;1.48;;;;;;;9.61;95.07;99321.50;5065676;28;20485;-67
2022/10/01 01:45:17;;;;;;;0.40;0.40;;;;;;;9.57;95.66;99319.03;5065640;28;20029;-67
2022/10/01 01:47:44;;;;;;;0.50;0.50;;;;;;;9.63;95.65;99321.47;5065549;28;20393;-66
2022/10/01 01:50:14;;;;;;;0.40;0.40;;;;;;;9.66;95.28;99317.06;5065620;28;20025;-66
2022/10/01 01:52:40;;;;;;;0.40;0.40;;;;;;;9.73;94.81;99314.34;5065069;28;20029;-66
2022/10/01 01:55:07;;;;;;;0.40;0.40;;;;;;;9.69;95.49;99305.78;5065187;28;20036;-67
2022/10/01 01:57:38;;;;;;;0.40;0.40;;;;;;;9.70;95.36;99307.47;5065681;28;20055;-66
2022/10/01 02:00:04;;;;;;;0.50;0.50;;;;;;;9.71;95.71;99309.22;5065423;28;20074;-66
2022/10/01 02:02:34;;;;;;;0.60;0.60;;;;;;;9.67;96.09;99303.22;5064188;28;20021;-66
2022/10/01 02:05:06;;;;;;;0.40;0.40;;;;;;;9.73;96.25;99301.41;5065433;28;20108;-67
2022/10/01 02:08:11;;;;;;;0.40;0.40;;;;;;;9.69;96.45;99299.75;5065252;28;20017;-67
2022/10/01 02:10:57;;;;;;;0.40;0.40;;;;;;;9.66;96.81;99291.13;5065350;28;20021;-66
2022/10/01 02:13:53;;;;;;;0.98;0.95;;;;;;;9.73;96.40;99298.81;5064948;28;20032;-66
2022/10/01 02:16:31;;;;;;;0.40;0.40;;;;;;;9.75;96.07;99289.22;5065281;28;20029;-66
2022/10/01 02:19:35;;;;;;;16.85;5.97;;;;;;;9.71;96.64;99287.59;5064964;28;20033;-66
2022/10/01 02:22:09;;;;;;;0.50;0.50;;;;;;;9.75;96.34;99289.22;5065096;28;20036;-66
2022/10/01 02:24:40;;;;;;;0.52;0.52;;;;;;;9.79;96.25;99277.91;5065110;28;20036;-66
2022/10/01 02:27:20;;;;;;;0.50;0.50;;;;;;;9.74;96.47;99277.16;5065172;28;20057;-66
2022/10/01 02:29:48;;;;;;;0.40;0.40;;;;;;;9.83;96.24;99278.69;5063924;28;20048;-67
2022/10/01 02:32:16;;;;;;;0.60;0.60;;;;;;;9.72;96.49;99274.63;5064994;28;20028;-66
2022/10/01 02:34:44;;;;;;;0.70;0.70;;;;;;;9.84;96.24;99280.41;5066132;28;20021;-66
2022/10/01 02:37:10;;;;;;;0.50;0.50;;;;;;;9.80;96.21;99261.47;5067993;28;20044;-67
2022/10/01 02:39:39;;;;;;;0.40;0.40;;;;;;;9.84;96.25;99263.09;5069337;28;20025;-67
2022/10/01 02:42:08;;;;;;;0.40;0.40;;;;;;;9.83;96.20;99255.34;5069231;28;20029;-67
2022/10/01 02:44:38;;;;;;;0.77;0.77;;;;;;;9.92;95.84;99253.41;5067761;28;20483;-67
2022/10/01 02:47:17;;;;;;;0.40;0.40;;;;;;;9.91;95.67;99256.88;5068917;28;20021;-67
2022/10/01 02:49:43;;;;;;;0.52;0.52;;;;;;;9.86;95.99;99250.94;5067673;28;20025;-67
2022/10/01 02:52:14;;;;;;;0.40;0.40;;;;;;;9.83;96.39;99240.66;5068884;28;20025;-67
2022/10/01 02:54:52;;;;;;;0.70;0.70;;;;;;;9.87;96.50;99241.44;5068952;28;20021;-67
2022/10/01 02:57:27;;;;;;;0.93;0.93;;;;;;;9.89;95.80;99237.06;5068930;28;20074;-67
2022/10/01 02:59:59;;;;;;;0.40;0.40;;;;;;;9.94;95.93;99239.53;5068896;28;20044;-68
2022/10/01 03:02:26;;;;;;;0.50;0.50;;;;;;;9.82;96.25;99236.38;5068629;28;20021;-69
2022/10/01 03:04:53;;;;;;;0.73;0.73;;;;;;;9.97;95.50;99229.94;5068866;28;20040;-68
2022/10/01 03:07:18;;;;;;;1.27;1.23;;;;;;;10.04;94.59;99220.28;5068777;28;20025;-70
2022/10/01 03:09:43;;;;;;;0.65;0.65;;;;;;;9.91;95.21;99235.28;5068578;28;20027;-69
2022/10/01 03:12:12;;;;;;;0.88;0.88;;;;;;;9.86;95.21;99219.84;5068921;28;20021;-69
2022/10/01 03:14:40;;;;;;;0.40;0.40;;;;;;;9.93;94.79;99223.16;5068623;28;20477;-69
2022/10/01 03:17:06;;;;;;;1.30;1.30;;;;;;;9.89;94.92;99230.13;5068382;28;20112;-69
2022/10/01 03:19:31;;;;;;;0.45;0.45;;;;;;;9.84;95.20;99237.16;5068233;28;20041;-69
2022/10/01 03:21:56;;;;;;;0.40;0.40;;;;;;;9.87;95.29;99223.28;5068514;28;20040;-69
2022/10/01 03:24:22;;;;;;;0.93;0.93;;;;;;;9.92;94.82;99224.88;5068545;28;20029;-69
2022/10/01 03:26:47;;;;;;;0.60;0.60;;;;;;;9.90;94.74;99220.63;5068086;28;20120;-69
2022/10/01 03:29:13;;;;;;;0.40;0.40;;;;;;;9.90;95.04;99218.88;5067001;28;20227;-69
2022/10/01 03:31:39;;;;;;;0.50;0.50;;;;;;;9.89;95.40;99204.22;5067803;28;20025;-68
2022/10/01 03:34:05;;;;;;;0.50;0.50;;;;;;;9.95;94.68;99207.56;5068444;28;20032;-69
2022/10/01 03:36:30;;;;;;;0.40;0.40;;;;;;;9.94;94.52;99211.00;5066878;28;20083;-68
2022/10/01 03:38:56;;;;;;;0.70;0.70;;;;;;;9.87;94.75;99203.38;5068426;28;20449;-69
2022/10/01 03:41:21;;;;;;;0.50;0.50;;;;;;;9.88;94.63;99207.72;5068109;28;20528;-68
2022/10/01 03:43:47;;;;;;;0.90;0.90;;;;;;;9.85;94.82;99201.75;5067854;28;20077;-68
2022/10/01 03:46:12;;;;;;;0.40;0.40;;;;;;;9.98;94.13;99189.31;5067540;28;20052;-68
2022/10/01 03:48:38;;;;;;;0.43;0.43;;;;;;;9.87;94.41;99205.97;5067850;28;20021;-68
2022/10/01 03:51:04;;;;;;;0.55;0.55;;;;;;;9.87;94.52;99202.56;5067861;28;20090;-69
2022/10/01 03:53:32;;;;;;;3.70;3.03;;;;;;;9.84;94.46;99205.22;5067873;28;20023;-72
2022/10/01 03:55:59;;;;;;;0.70;0.70;;;;;;;9.75;95.02;99198.50;5067792;28;20361;-68
2022/10/01 03:58:24;;;;;;;0.40;0.40;;;;;;;9.77;94.47;99183.78;5067763;28;20032;-68
2022/10/01 04:00:50;;;;;;;0.82;0.82;;;;;;;9.84;94.17;99194.88;5066350;28;20029;-68
2022/10/01 04:03:16;;;;;;;0.40;0.40;;;;;;;9.79;94.34;99184.59;5067264;28;20457;-68
2022/10/01 04:05:43;;;;;;;0.50;0.50;;;;;;;9.65;94.68;99170.25;5067644;28;20017;-68
2022/10/01 04:08:08;;;;;;;0.60;0.60;;;;;;;9.84;93.97;99185.31;5067569;28;20099;-69
2022/10/01 04:10:34;;;;;;;0.50;0.50;;;;;;;9.76;94.43;99197.66;5067549;28;20052;-69
2022/10/01 04:13:00;;;;;;;0.40;0.40;;;;;;;9.81;93.91;99188.00;5066295;28;20033;-69
2022/10/01 04:15:25;;;;;;;0.65;0.65;;;;;;;9.91;93.63;99193.81;5067150;28;20410;-69
2022/10/01 04:17:50;;;;;;;0.50;0.50;;;;;;;9.86;94.02;99193.06;5066990;28;20032;-69
2022/10/01 04:20:16;;;;;;;0.60;0.60;;;;;;;9.78;94.41;99185.47;5067299;28;20060;-70
2022/10/01 04:22:41;;;;;;;0.40;0.40;;;;;;;9.83;93.89;99191.41;5067415;28;20040;-68
2022/10/01 04:25:09;;;;;;;0.52;0.52;;;;;;;9.82;93.89;99181.94;5067317;28;20023;-69
2022/10/01 04:27:36;;;;;;;0.60;0.60;;;;;;;9.90;93.43;99187.75;5067393;28;20025;-68
2022/10/01 04:30:01;;;;;;;0.50;0.50;;;;;;;9.82;93.80;99184.53;5067178;28;20116;-70
2022/10/01 04:32:27;;;;;;;1.38;1.30;;;;;;;9.84;93.79;99182.72;5067047;28;20017;-68
2022/10/01 04:34:52;;;;;;;0.50;0.50;;;;;;;9.87;93.32;99184.41;5067118;28;20469;-68
2022/10/01 04:37:19;;;;;;;0.40;0.40;;;;;;;9.98;92.54;99177.22;5067210;28;20024;-70
2022/10/01 04:39:45;;;;;;;0.50;0.50;;;;;;;10.01;92.34;99178.88;5067134;28;20082;-70
2022/10/01 04:42:12;;;;;;;0.50;0.50;;;;;;;9.84;93.11;99167.19;5067015;28;20025;-69
2022/10/01 04:44:37;;;;;;;2.60;2.47;;;;;;;9.93;92.52;99168.69;5066960;28;20093;-69
2022/10/01 04:47:02;;;;;;;0.65;0.65;;;;;;;9.92;92.50;99174.75;5066683;28;20056;-69
2022/10/01 04:49:28;;;;;;;0.50;0.50;;;;;;;9.82;92.88;99168.97;5066905;28;20028;-68
2022/10/01 04:51:53;;;;;;;1.13;1.13;;;;;;;9.78;93.43;99173.38;5066732;28;20029;-69
2022/10/01 04:54:18;;;;;;;0.40;0.40;;;;;;;9.75;92.70;99155.31;5066953;28;20032;-68
2022/10/01 04:56:44;;;;;;;0.50;0.50;;;;;;;9.77;92.90;99173.41;5066320;28;20025;-68
2022/10/01 04:59:09;;;;;;;0.40;0.40;;;;;;;9.83;92.73;99157.72;5065457;28;20385;-70
2022/10/01 05:01:34;;;;;;;0.50;0.50;;;;;;;9.79;92.65;99156.09;5065667;28;20031;-69
2022/10/01 05:04:00;;;;;;;0.50;0.50;;;;;;;9.81;92.25;99167.25;5065295;28;20031;-69
2022/10/01 05:06:25;;;;;;;0.40;0.40;;;;;;;9.86;91.88;99142.06;5066341;28;20423;-68
2022/10/01 05:08:51;;;;;;;1.15;1.15;;;;;;;9.73;92.61;99151.06;5066389;28;20032;-71
2022/10/01 05:11:17;;;;;;;0.40;0.40;;;;;;;9.78;91.97;99150.06;5066483;28;20488;-69
2022/10/01 05:13:43;;;;;;;0.55;0.55;;;;;;;9.69;92.68;99170.16;5066308;28;20029;-68
2022/10/01 05:16:08;;;;;;;1.00;1.00;;;;;;;9.70;92.41;99143.34;5066911;28;20036;-69
2022/10/01 05:18:33;;;;;;;4.97;4.53;;;;;;;9.81;91.93;99154.28;5066526;28;20024;-69
2022/10/01 05:21:06;;;;;;;1.25;1.23;;;;;;;9.79;91.71;99156.09;5066456;28;20053;-69
2022/10/01 05:23:32;;;;;;;0.60;0.60;;;;;;;9.74;91.85;99147.59;5066384;28;20050;-70
2022/10/01 05:25:58;;;;;;;0.88;0.88;;;;;;;9.77;91.42;99157.88;5066375;28;20029;-70
2022/10/01 05:28:26;;;;;;;0.95;0.90;;;;;;;9.67;92.35;99162.44;5066153;28;20032;-70
2022/10/01 05:30:52;;;;;;;0.60;0.60;;;;;;;9.73;91.64;99151.91;5066107;28;20025;-69
2022/10/01 05:33:18;;;;;;;0.40;0.40;;;;;;;9.77;91.48;99163.91;5066219;28;20105;-70
2022/10/01 05:35:43;;;;;;;0.50;0.50;;;;;;;9.75;91.24;99149.28;5066286;28;20025;-71
2022/10/01 05:38:09;;;;;;;0.60;0.60;;;;;;;9.90;90.03;99153.22;5066443;28;20081;-71
2022/10/01 05:40:34;;;;;;;0.40;0.40;;;;;;;9.96;89.65;99149.59;5066122;28;20017;-70
2022/10/01 05:43:01;;;;;;;0.40;0.40;;;;;;;10.01;89.03;99148.63;5048011;28;20097;-70
2022/10/01 05:45:28;;;;;;;0.75;0.75;;;;;;;9.74;90.21;99137.22;5065675;28;20017;-69
2022/10/01 05:47:58;;;;;;;0.45;0.45;;;;;;;9.89;89.90;99151.50;5065790;28;20048;-69
2022/10/01 05:50:24;;;;;;;1.40;1.30;;;;;;;9.77;90.15;99153.53;5065883;28;20025;-69
2022/10/01 05:52:52;;;;;;;0.60;0.60;;;;;;;9.82;90.28;99147.38;5048020;28;20098;-70
2022/10/01 05:55:18;;;;;;;0.50;0.50;;;;;;;9.74;90.12;99140.66;5065648;28;20080;-71
2022/10/01 05:57:43;;;;;;;0.52;0.52;;;;;;;9.87;89.49;99151.53;5065520;28;20035;-70
2022/10/01 06:00:11;;;;;;;3.22;3.03;;;;;;;9.75;90.35;99150.13;5065693;28;20048;-70
2022/10/01 06:02:37;;;;;;;0.60;0.60;;;;;;;9.94;89.28;99141.00;5065516;28;20061;-71
2022/10/01 06:05:02;;;;;;;0.40;0.40;;;;;;;9.87;89.57;99143.75;5065723;28;20025;-68
2022/10/01 06:07:30;;;;;;;0.40;0.40;;;;;;;9.86;89.62;99142.06;5065410;28;20036;-69
2022/10/01 06:09:56;;;;;;;0.63;0.63;;;;;;;9.86;89.71;99141.22;5065142;28;20087;-69
2022/10/01 06:12:22;;;;;;;1.20;1.20;;;;;;;9.94;89.23;99141.00;5065338;28;20389;-71
2022/10/01 06:14:47;;;;;;;0.77;0.77;;;;;;;9.96;89.05;99136.66;5065327;28;20032;-70
2022/10/01 06:17:13;;;;;;;0.45;0.45;;;;;;;9.92;89.54;99138.47;5065335;28;20029;-69
2022/10/01 06:19:38;;;;;;;0.40;0.40;;;;;;;9.88;89.72;99142.03;5065275;28;20044;-70
2022/10/01 06:22:03;;;;;;;0.60;0.60;;;;;;;9.97;89.13;99138.38;5065405;28;20488;-69
2022/10/01 06:24:30;;;;;;;0.40;0.40;;;;;;;9.92;89.17;99141.91;5065725;28;20031;-69
2022/10/01 06:26:56;;;;;;;1.20;1.20;;;;;;;9.95;89.44;99130.63;5065376;28;20144;-70
2022/10/01 06:29:22;;;;;;;0.50;0.50;;;;;;;10.04;88.93;99129.53;5065307;28;20104;-70
2022/10/01 06:31:47;;;;;;;0.50;0.50;;;;;;;10.09;88.53;99129.41;5065390;28;20031;-69
2022/10/01 06:34:12;;;;;;;2.95;2.35;;;;;;;10.11;88.41;99128.44;5065067;28;20108;-70
2022/10/01 06:36:38;;;;;;;0.40;0.40;;;;;;;10.09;88.27;99124.22;5065082;28;20025;-69
2022/10/01 06:39:03;;;;;;;0.40;0.40;;;;;;;10.16;87.94;99126.59;5064988;28;20043;-69
2022/10/01 06:41:28;;;;;;;0.40;0.40;;;;;;;10.16;87.93;99116.22;5064976;28;20525;-69
2022/10/01 06:43:56;;;;;;;2.05;1.95;;;;;;;10.21;87.90;99125.63;5065079;28;20032;-70
2022/10/01 06:46:22;;;;;;;0.60;0.60;;;;;;;10.33;86.90;99120.09;5047319;28;20033;-69
2022/10/01 06:48:47;;;;;;;3.63;1.35;;;;;;;10.36;86.89;99104.44;5046831;28;20035;-70
2022/10/01 06:51:13;;;;;;;2.55;1.95;;;;;;;10.37;86.87;99108.72;5065004;28;20127;-68
2022/10/01 06:53:38;;;;;;;0.60;0.60;;;;;;;10.35;86.76;99107.09;5064798;28;20033;-69
2022/10/01 06:56:05;;;;;;;0.60;0.60;;;;;;;10.29;87.43;99108.09;5046946;28;20032;-69
2022/10/01 06:58:31;;;;;;;0.50;0.50;;;;;;;10.25;87.77;99111.69;5064781;28;20489;-70
2022/10/01 07:00:58;;;;;;;0.40;0.40;;;;;;;10.38;88.12;99114.78;5064971;28;20032;-70
2022/10/01 07:03:23;;;;;;;0.40;0.40;;;;;;;10.57;86.53;99107.34;5046856;28;20532;-69
2022/10/01 07:05:49;;;;;;;2.38;2.22;;;;;;;10.48;86.59;99102.44;5064662;28;20071;-69
2022/10/01 07:08:15;;;;;;;0.40;0.40;;;;;;;10.57;86.45;99112.53;5064706;28;20025;-69
2022/10/01 07:10:40;;;;;;;0.70;0.70;;;;;;;10.45;86.75;99110.28;5065084;28;20120;-69
2022/10/01 07:13:13;;;;;;;0.50;0.50;;;;;;;10.56;86.25;99100.44;5064726;28;20024;-68
2022/10/01 07:15:39;;;;;;;1.00;1.00;;;;;;;10.82;84.11;99088.44;5064784;28;20025;-69
2022/10/01 07:18:05;;;;;;;2.05;1.17;;;;;;;10.66;85.27;99096.69;5064597;28;20074;-69
2022/10/01 07:20:34;;;;;;;0.50;0.50;;;;;;;10.64;85.20;99085.50;5065112;28;20507;-69
2022/10/01 07:23:00;;;;;;;0.40;0.40;;;;;;;10.56;85.83;99092.66;5067085;28;20029;-71
2022/10/01 07:25:26;;;;;;;0.50;0.50;;;;;;;10.60;85.70;99091.69;5068487;28;20020;-69
2022/10/01 07:27:56;;;;;;;1.48;1.38;;;;;;;10.58;86.17;99088.28;5067228;28;20040;-70
2022/10/01 07:30:22;;;;;;;1.02;1.02;;;;;;;10.75;85.12;99076.53;5066980;28;20025;-69
2022/10/01 07:32:48;;;;;;;0.55;0.55;;;;;;;10.77;84.59;99072.13;5068152;28;20028;-69
2022/10/01 07:35:15;;;;;;;0.82;0.82;;;;;;;10.83;84.09;99071.94;5068127;28;20060;-69
2022/10/01 07:37:40;;;;;;;0.40;0.40;;;;;;;10.97;83.13;99078.47;5068216;28;20092;-70
2022/10/01 07:40:06;;;;;;;0.57;0.57;;;;;;;10.87;83.82;99083.09;5068230;28;20076;-69
2022/10/01 07:42:31;;;;;;;1.85;1.75;;;;;;;10.86;83.92;99078.81;5068269;28;20028;-70
2022/10/01 07:44:57;;;;;;;0.52;0.52;;;;;;;10.94;83.96;99073.38;5068004;28;20024;-71
2022/10/01 07:47:22;;;;;;;1.63;1.52;;;;;;;11.01;83.18;99067.06;5067810;28;20028;-69
2022/10/01 07:49:47;;;;;;;1.23;1.13;;;;;;;11.17;82.71;99071.78;5067918;28;20085;-70
2022/10/01 07:52:12;;;;;;;0.50;0.50;;;;;;;11.08;83.06;99063.41;5067999;28;20021;-72
2022/10/01 07:54:38;;;;;;;0.50;0.50;;;;;;;11.07;82.94;99064.28;5067666;28;20025;-70
2022/10/01 07:57:03;;;;;;;0.65;0.65;;;;;;;11.18;83.14;99057.91;5067944;28;20099;-72
2022/10/01 07:59:30;;;;;;;0.38;0.38;;;;;;;11.13;83.07;99040.69;5067863;28;20489;-70
2022/10/01 08:01:55;;;;;;;0.40;0.40;;;;;;;11.30;81.91;99047.09;5049842;28;20088;-69
2022/10/01 08:07:06;;;;;;;0.40;0.40;;;;;;;11.39;81.61;99049.38;5067546;28;20044;-69
2022/10/01 08:09:32;;;;;;;0.40;0.40;;;;;;;11.37;81.10;99045.97;5067781;28;20155;-70
2022/10/01 08:11:57;;;;;;;0.43;0.43;;;;;;;11.23;82.52;99040.41;5067509;28;20025;-69
2022/10/01 08:14:23;;;;;;;0.40;0.40;;;;;;;11.40;81.33;99037.25;5067497;28;20028;-70
2022/10/01 08:16:48;;;;;;;0.60;0.60;;;;;;;11.30;81.74;99038.44;5067951;28;20053;-70
2022/10/01 08:19:14;;;;;;;0.40;0.40;;;;;;;11.30;82.30;99038.44;5067357;28;20041;-71
2022/10/01 08:21:40;;;;;;;0.40;0.40;;;;;;;11.56;80.92;99034.97;5067476;28;20036;-72
2022/10/01 08:24:06;;;;;;;1.73;1.10;;;;;;;11.43;80.75;99028.50;5067318;28;20021;-70
2022/10/01 08:26:32;;;;;;;0.95;0.95;;;;;;;11.51;80.63;99031.69;5067410;28;20036;-72
2022/10/01 08:28:58;;;;;;;0.70;0.70;;;;;;;11.55;79.57;99033.25;5067327;28;20025;-71
2022/10/01 08:31:24;;;;;;;0.50;0.50;;;;;;;11.40;80.46;99035.50;5066822;28;20027;-73
2022/10/01 08:33:50;;;;;;;0.30;0.30;;;;;;;11.46;80.79;99026.63;5066876;28;20029;-76
2022/10/01 08:36:15;;;;;;;0.40;0.40;;;;;;;11.53;79.33;99032.47;5067046;28;20048;-73
2022/10/01 08:38:46;;;;;;;0.52;0.52;;;;;;;11.44;80.19;99019.81;5049028;28;20021;-73
2022/10/01 08:41:37;;;;;;;0.60;0.60;;;;;;;11.47;79.39;99028.31;5066121;28;20025;-71
2022/10/01 08:44:06;;;;;;;0.50;0.50;;;;;;;11.56;79.51;99023.72;5066223;28;20017;-72
2022/10/01 08:46:34;;;;;;;0.40;0.40;;;;;;;11.45;80.02;99026.69;5066826;28;20402;-72
2022/10/01 08:49:10;;;;;;;1.33;1.23;;;;;;;11.33;80.85;99014.94;5065847;28;20025;-74
2022/10/01 08:51:50;;;;;;;0.68;0.68;;;;;;;11.49;80.32;99012.69;5048196;28;20232;-73
2022/10/01 08:54:26;;;;;;;0.38;0.38;;;;;;;11.46;80.27;99000.66;5066026;28;20024;-72
2022/10/01 08:56:55;;;;;;;0.40;0.40;;;;;;;11.56;80.25;99008.97;5066458;28;20017;-72
2022/10/01 08:59:36;;;;;;;0.77;0.77;;;;;;;11.60;80.89;99014.91;5066757;28;20029;-72
2022/10/01 09:02:13;;;;;;;1.00;1.00;;;;;;;11.88;80.12;99009.59;5066434;28;20021;-75
2022/10/01 09:04:51;;;;;;;0.65;0.65;;;;;;;12.01;79.94;99003.94;5067543;28;20024;-75
2022/10/01 09:07:37;;;;;;;0.40;0.40;;;;;;;12.33;77.60;99006.25;5067424;28;20050;-73
2022/10/01 09:10:14;;;;;;;0.60;0.60;;;;;;;12.26;78.65;98997.81;5065897;28;20025;-69
2022/10/01 09:12:57;;;;;;;1.60;1.58;;;;;;;12.58;77.27;99003.53;5047836;28;20032;-69
2022/10/01 09:15:31;;;;;;;0.60;0.60;;;;;;;12.61;78.10;98997.34;5048551;28;20047;-67
2022/10/01 09:18:18;;;;;;;0.40;0.40;;;;;;;12.88;75.87;98985.00;5065962;28;20032;-69
2022/10/01 09:20:50;;;;;;;2.90;1.55;;;;;;;13.07;74.49;98984.22;5066079;28;20084;-69
2022/10/01 09:23:26;;;;;;;;;;;;;;;12.87;74.76;98991.13;5048424;28;20044;-68
2022/10/01 09:25:52;;;;;;;0.40;0.40;;;;;;;12.82;75.64;98984.38;5065775;28;19908;-68
2022/10/01 09:28:17;;;;;;;1.02;0.98;;;;;;;12.86;75.19;98985.97;5065935;28;20308;-68
2022/10/01 09:30:50;;;;;;;0.50;0.50;;;;;;;12.77;75.06;98976.75;5065161;28;20025;-69
2022/10/01 09:33:19;;;;;;;0.70;0.70;;;;;;;12.75;75.11;98982.03;5064757;28;20089;-67
2022/10/01 09:35:47;;;;;;;0.60;0.60;;;;;;;12.89;74.46;98971.06;5065884;28;20045;-70
2022/10/01 09:38:24;;;;;;;0.40;0.40;;;;;;;12.67;75.76;98980.66;5065963;28;20089;-68
2022/10/01 09:40:57;;;;;;;0.40;0.40;;;;;;;12.78;75.40;98973.25;5065641;28;20046;-75
2022/10/01 09:43:27;;;;;;;0.40;0.40;;;;;;;12.92;74.71;98972.69;5065465;28;20187;-74
2022/10/01 09:45:53;;;;;;;0.57;0.57;;;;;;;12.79;74.38;98969.75;5065776;28;20051;-73
2022/10/01 09:48:21;;;;;;;0.40;0.40;;;;;;;12.74;75.17;98982.09;5065728;28;20020;-74
2022/10/01 09:50:57;;;;;;;0.40;0.40;;;;;;;12.76;74.50;98975.09;5065747;28;20040;-74
2022/10/01 09:53:33;;;;;;;0.40;0.40;;;;;;;12.70;75.13;98983.97;5065772;28;20107;-74
2022/10/01 09:56:04;;;;;;;0.40;0.40;;;;;;;12.70;75.08;98976.16;5065823;28;20025;-74
2022/10/01 09:58:36;;;;;;;0.65;0.65;;;;;;;12.66;75.14;98972.00;5065477;28;20051;-72
2022/10/01 10:01:01;;;;;;;0.40;0.40;;;;;;;12.77;74.50;98967.22;5065818;28;20029;-74
2022/10/01 10:03:29;;;;;;;0.40;0.40;;;;;;;12.70;74.95;98959.72;5065562;28;20048;-73
2022/10/01 10:05:58;;;;;;;0.55;0.55;;;;;;;12.66;74.97;98958.97;5047464;28;20059;-74
2022/10/01 10:08:34;;;;;;;0.40;0.40;;;;;;;12.70;74.66;98954.50;5065564;28;20100;-75
2022/10/01 10:11:05;;;;;;;0.60;0.60;;;;;;;12.68;75.06;98951.09;5065549;28;20089;-74
2022/10/01 10:13:33;;;;;;;0.50;0.50;;;;;;;12.66;75.72;98953.78;5045697;28;20036;-74
2022/10/01 10:16:06;;;;;;;0.63;0.63;;;;;;;12.68;75.89;98951.97;5064123;28;20020;-73
2022/10/01 10:18:37;;;;;;;0.40;0.40;;;;;;;12.78;75.60;98949.81;5046981;28;20025;-73
2022/10/01 10:21:15;;;;;;;0.50;0.50;;;;;;;12.85;75.66;98953.88;5064002;28;20051;-73
2022/10/01 10:23:56;;;;;;;0.40;0.40;;;;;;;12.98;74.91;98953.34;5064467;28;20029;-73
2022/10/01 10:26:41;;;;;;;2.20;1.80;;;;;;;12.96;74.33;98953.41;5065112;28;20033;-75
2022/10/01 10:29:23;;;;;;;0.70;0.70;;;;;;;12.83;75.04;98952.22;5047451;28;20035;-74
2022/10/01 10:31:50;;;;;;;;;;;;;;;12.88;74.82;98951.13;5065607;28;20032;-75
2022/10/01 10:34:15;;;;;;;0.40;0.40;;;;;;;12.99;73.76;98939.41;5064959;28;19936;-74
2022/10/01 10:36:42;;;;;;;0.40;0.40;;;;;;;12.86;74.20;98949.50;5064046;28;20017;-73
2022/10/01 10:39:29;;;;;;;0.40;0.40;;;;;;;12.76;74.25;98939.44;5065267;28;20025;-73
2022/10/01 10:41:57;;;;;;;0.40;0.40;;;;;;;12.79;74.29;98943.72;5063848;28;20104;-73
2022/10/01 10:44:29;;;;;;;0.85;0.85;;;;;;;12.89;73.49;98947.59;5064328;28;20025;-73
2022/10/01 10:46:59;;;;;;;0.47;0.47;;;;;;;12.76;73.85;98949.03;5047131;28;20021;-76
2022/10/01 10:49:31;;;;;;;0.40;0.40;;;;;;;12.75;74.09;98952.53;5064963;28;20033;-75
2022/10/01 10:51:59;;;;;;;0.40;0.40;;;;;;;12.49;74.94;98931.03;5065224;28;20033;-72
2022/10/01 10:54:39;;;;;;;0.40;0.40;;;;;;;12.59;74.73;98931.47;5065107;28;20186;-74
2022/10/01 10:57:20;;;;;;;0.50;0.50;;;;;;;12.60;74.82;98934.03;5068192;28;20516;-76
2022/10/01 11:00:00;;;;;;;1.05;1.05;;;;;;;12.42;75.57;98934.78;5069251;28;20029;-74
2022/10/01 11:02:29;;;;;;;0.45;0.45;;;;;;;12.48;75.43;98930.19;5068956;28;20459;-76
2022/10/01 11:04:56;;;;;;;0.40;0.40;;;;;;;12.49;75.26;98931.03;5068813;28;20017;-76
2022/10/01 11:07:24;;;;;;;0.40;0.40;;;;;;;12.42;76.02;98930.41;5068875;28;20032;-74
2022/10/01 11:10:05;;;;;;;0.30;0.30;;;;;;;12.49;75.50;98920.63;5068282;28;20021;-76
2022/10/01 11:12:43;;;;;;;0.50;0.50;;;;;;;12.29;75.90;98924.00;5069020;28;20025;-74
2022/10/01 11:15:35;;;;;;;0.50;0.50;;;;;;;12.21;76.88;98921.69;5068186;28;20017;-75
2022/10/01 11:18:16;;;;;;;0.45;0.45;;;;;;;12.25;76.61;98916.31;5068314;28;20028;-75
2022/10/01 11:21:27;;;;;;;0.40;0.40;;;;;;;12.29;76.56;98931.81;5068489;28;20033;-77
2022/10/01 11:24:04;;;;;;;0.40;0.40;;;;;;;12.33;75.92;98928.19;5050726;28;20029;-75
2022/10/01 11:26:40;;;;;;;0.40;0.40;;;;;;;12.24;76.76;98931.97;5049822;28;20040;-76
2022/10/01 11:29:18;;;;;;;0.30;0.30;;;;;;;12.20;76.75;98920.00;5067132;28;20067;-76
2022/10/01 11:31:49;;;;;;;0.40;0.40;;;;;;;12.23;77.11;98931.16;5068105;28;20453;-76
2022/10/01 11:34:25;;;;;;;0.50;0.50;;;;;;;12.22;77.34;98923.41;5068147;28;20069;-75
2022/10/01 11:37:12;;;;;;;0.73;0.73;;;;;;;12.30;76.62;98921.34;5068173;28;20065;-74
2022/10/01 11:39:41;;;;;;;0.50;0.50;;;;;;;12.19;76.89;98908.75;5068319;28;20017;-74
2022/10/01 11:42:12;;;;;;;0.30;0.30;;;;;;;12.04;77.71;98910.19;5068231;28;20075;-71
2022/10/01 11:44:56;;;;;;;0.40;0.40;;;;;;;12.06;77.93;98913.53;5068318;28;20113;-71
2022/10/01 11:47:35;;;;;;;0.30;0.30;;;;;;;12.01;78.35;98916.31;5049614;28;20115;-70
2022/10/01 11:50:07;;;;;;;0.40;0.40;;;;;;;11.99;79.01;98922.50;5068124;28;20021;-71
2022/10/01 11:52:51;;;;;;;0.30;0.30;;;;;;;12.02;79.66;98922.38;5050329;28;20420;-71
2022/10/01 11:58:49;;;;;;;0.40;0.40;;;;;;;12.16;79.53;98919.28;5067844;28;20452;-72